sensor_id;sensor_type;location;lat;lon;timestamp;P1;durP1;ratioP1;P2;durP2;ratioP2
22415;SDS011;12204;50.600;4.608;2023-07-30T00:01:59;6.95;;;1.35;;
22415;SDS011;12204;50.600;4.608;2023-07-30T00:07:02;5.13;;;1.30;;
22415;SDS011;12204;50.600;4.608;2023-07-30T00:12:09;7.57;;;1.60;;
22415;SDS011;12204;50.600;4.608;2023-07-30T00:17:12;6.85;;;1.65;;
22415;SDS011;12204;50.600;4.608;2023-07-30T00:22:16;4.45;;;1.25;;
22415;SDS011;12204;50.600;4.608;2023-07-30T00:32:28;5.53;;;1.40;;
22415;SDS011;12204;50.600;4.608;2023-07-30T00:37:31;6.40;;;1.35;;
22415;SDS011;12204;50.600;4.608;2023-07-30T00:42:36;4.30;;;1.40;;
22415;SDS011;12204;50.600;4.608;2023-07-30T00:47:39;6.32;;;1.25;;
22415;SDS011;12204;50.600;4.608;2023-07-30T00:52:44;4.57;;;1.20;;
22415;SDS011;12204;50.600;4.608;2023-07-30T00:57:49;6.55;;;1.30;;
22415;SDS011;12204;50.600;4.608;2023-07-30T01:02:54;8.45;;;1.30;;
22415;SDS011;12204;50.600;4.608;2023-07-30T01:07:58;6.25;;;1.30;;
22415;SDS011;12204;50.600;4.608;2023-07-30T01:13:03;8.70;;;1.30;;
22415;SDS011;12204;50.600;4.608;2023-07-30T01:18:07;9.82;;;1.27;;
22415;SDS011;12204;50.600;4.608;2023-07-30T01:23:11;9.70;;;1.30;;
22415;SDS011;12204;50.600;4.608;2023-07-30T01:28:16;6.03;;;1.35;;
22415;SDS011;12204;50.600;4.608;2023-07-30T01:33:22;10.27;;;1.17;;
22415;SDS011;12204;50.600;4.608;2023-07-30T01:38:28;6.75;;;1.27;;
22415;SDS011;12204;50.600;4.608;2023-07-30T01:43:33;8.27;;;1.40;;
22415;SDS011;12204;50.600;4.608;2023-07-30T01:48:36;6.20;;;1.27;;
22415;SDS011;12204;50.600;4.608;2023-07-30T01:53:41;5.82;;;1.30;;
22415;SDS011;12204;50.600;4.608;2023-07-30T01:58:45;4.45;;;1.13;;
22415;SDS011;12204;50.600;4.608;2023-07-30T02:03:48;6.60;;;1.20;;
22415;SDS011;12204;50.600;4.608;2023-07-30T02:08:53;6.18;;;1.45;;
22415;SDS011;12204;50.600;4.608;2023-07-30T02:13:57;7.32;;;1.30;;
22415;SDS011;12204;50.600;4.608;2023-07-30T02:19:00;6.70;;;1.30;;
22415;SDS011;12204;50.600;4.608;2023-07-30T02:24:05;4.45;;;1.30;;
22415;SDS011;12204;50.600;4.608;2023-07-30T02:29:11;4.88;;;1.17;;
22415;SDS011;12204;50.600;4.608;2023-07-30T02:34:14;3.33;;;1.08;;
22415;SDS011;12204;50.600;4.608;2023-07-30T02:39:19;5.53;;;1.13;;
22415;SDS011;12204;50.600;4.608;2023-07-30T02:44:23;5.60;;;1.00;;
22415;SDS011;12204;50.600;4.608;2023-07-30T02:49:26;9.00;;;1.10;;
22415;SDS011;12204;50.600;4.608;2023-07-30T02:54:32;6.10;;;1.10;;
22415;SDS011;12204;50.600;4.608;2023-07-30T02:59:35;4.57;;;1.17;;
22415;SDS011;12204;50.600;4.608;2023-07-30T03:04:39;6.57;;;1.27;;
22415;SDS011;12204;50.600;4.608;2023-07-30T03:09:44;4.07;;;1.10;;
22415;SDS011;12204;50.600;4.608;2023-07-30T03:14:48;6.03;;;0.95;;
22415;SDS011;12204;50.600;4.608;2023-07-30T03:19:52;5.80;;;1.10;;
22415;SDS011;12204;50.600;4.608;2023-07-30T03:24:56;3.25;;;1.00;;
22415;SDS011;12204;50.600;4.608;2023-07-30T03:30:00;7.13;;;1.05;;
22415;SDS011;12204;50.600;4.608;2023-07-30T03:35:04;4.18;;;1.00;;
22415;SDS011;12204;50.600;4.608;2023-07-30T03:40:10;3.92;;;1.00;;
22415;SDS011;12204;50.600;4.608;2023-07-30T03:45:14;3.80;;;1.17;;
22415;SDS011;12204;50.600;4.608;2023-07-30T03:50:17;5.45;;;1.08;;
22415;SDS011;12204;50.600;4.608;2023-07-30T03:55:23;6.38;;;1.17;;
22415;SDS011;12204;50.600;4.608;2023-07-30T04:00:26;3.90;;;1.00;;
22415;SDS011;12204;50.600;4.608;2023-07-30T04:05:31;5.18;;;1.17;;
22415;SDS011;12204;50.600;4.608;2023-07-30T04:10:35;4.65;;;1.00;;
22415;SDS011;12204;50.600;4.608;2023-07-30T04:15:39;3.85;;;1.05;;
22415;SDS011;12204;50.600;4.608;2023-07-30T04:20:42;4.65;;;1.10;;
22415;SDS011;12204;50.600;4.608;2023-07-30T04:25:49;3.33;;;0.93;;
22415;SDS011;12204;50.600;4.608;2023-07-30T04:30:53;5.00;;;1.05;;
22415;SDS011;12204;50.600;4.608;2023-07-30T04:35:57;4.75;;;1.02;;
22415;SDS011;12204;50.600;4.608;2023-07-30T04:41:02;3.90;;;1.00;;
22415;SDS011;12204;50.600;4.608;2023-07-30T04:46:11;5.32;;;0.90;;
22415;SDS011;12204;50.600;4.608;2023-07-30T04:51:16;4.65;;;1.00;;
22415;SDS011;12204;50.600;4.608;2023-07-30T04:56:22;3.83;;;1.00;;
22415;SDS011;12204;50.600;4.608;2023-07-30T05:01:28;4.72;;;0.90;;
22415;SDS011;12204;50.600;4.608;2023-07-30T05:06:32;4.28;;;1.10;;
22415;SDS011;12204;50.600;4.608;2023-07-30T05:11:37;2.28;;;0.80;;
22415;SDS011;12204;50.600;4.608;2023-07-30T05:16:41;4.22;;;0.93;;
22415;SDS011;12204;50.600;4.608;2023-07-30T05:21:44;4.90;;;1.10;;
22415;SDS011;12204;50.600;4.608;2023-07-30T05:26:49;6.63;;;1.02;;
22415;SDS011;12204;50.600;4.608;2023-07-30T05:31:53;8.63;;;1.00;;
22415;SDS011;12204;50.600;4.608;2023-07-30T05:36:56;4.97;;;0.80;;
22415;SDS011;12204;50.600;4.608;2023-07-30T05:42:01;4.53;;;0.88;;
22415;SDS011;12204;50.600;4.608;2023-07-30T05:47:06;10.02;;;1.10;;
22415;SDS011;12204;50.600;4.608;2023-07-30T05:52:09;4.40;;;0.90;;
22415;SDS011;12204;50.600;4.608;2023-07-30T05:57:14;4.47;;;1.00;;
22415;SDS011;12204;50.600;4.608;2023-07-30T06:02:17;4.53;;;1.20;;
22415;SDS011;12204;50.600;4.608;2023-07-30T06:07:21;3.85;;;0.80;;
22415;SDS011;12204;50.600;4.608;2023-07-30T06:12:26;6.30;;;0.98;;
22415;SDS011;12204;50.600;4.608;2023-07-30T06:17:30;5.30;;;1.00;;
22415;SDS011;12204;50.600;4.608;2023-07-30T06:22:34;6.97;;;1.00;;
22415;SDS011;12204;50.600;4.608;2023-07-30T06:27:39;7.18;;;1.10;;
22415;SDS011;12204;50.600;4.608;2023-07-30T06:32:43;6.72;;;1.05;;
22415;SDS011;12204;50.600;4.608;2023-07-30T06:37:46;8.55;;;1.00;;
22415;SDS011;12204;50.600;4.608;2023-07-30T06:42:51;10.77;;;1.20;;
22415;SDS011;12204;50.600;4.608;2023-07-30T06:47:55;8.57;;;1.25;;
22415;SDS011;12204;50.600;4.608;2023-07-30T06:52:59;6.53;;;1.48;;
22415;SDS011;12204;50.600;4.608;2023-07-30T06:58:03;9.80;;;1.40;;
22415;SDS011;12204;50.600;4.608;2023-07-30T07:03:07;8.65;;;1.40;;
22415;SDS011;12204;50.600;4.608;2023-07-30T07:08:12;15.15;;;1.58;;
22415;SDS011;12204;50.600;4.608;2023-07-30T07:13:16;12.73;;;1.70;;
22415;SDS011;12204;50.600;4.608;2023-07-30T07:18:20;11.07;;;1.73;;
22415;SDS011;12204;50.600;4.608;2023-07-30T07:23:23;12.00;;;1.90;;
22415;SDS011;12204;50.600;4.608;2023-07-30T07:28:28;12.80;;;2.10;;
22415;SDS011;12204;50.600;4.608;2023-07-30T07:33:32;17.67;;;2.22;;
22415;SDS011;12204;50.600;4.608;2023-07-30T07:38:35;14.38;;;1.80;;
22415;SDS011;12204;50.600;4.608;2023-07-30T07:43:40;12.80;;;2.00;;
22415;SDS011;12204;50.600;4.608;2023-07-30T07:48:44;14.80;;;2.10;;
22415;SDS011;12204;50.600;4.608;2023-07-30T07:53:47;15.65;;;2.20;;
22415;SDS011;12204;50.600;4.608;2023-07-30T07:58:52;14.68;;;2.17;;
22415;SDS011;12204;50.600;4.608;2023-07-30T08:03:55;10.02;;;1.95;;
22415;SDS011;12204;50.600;4.608;2023-07-30T08:08:59;12.63;;;2.10;;
22415;SDS011;12204;50.600;4.608;2023-07-30T08:14:04;13.05;;;1.70;;
22415;SDS011;12204;50.600;4.608;2023-07-30T08:19:08;10.38;;;2.00;;
22415;SDS011;12204;50.600;4.608;2023-07-30T08:24:11;10.40;;;1.70;;
22415;SDS011;12204;50.600;4.608;2023-07-30T08:29:16;9.35;;;1.85;;
22415;SDS011;12204;50.600;4.608;2023-07-30T08:34:21;11.65;;;1.77;;
22415;SDS011;12204;50.600;4.608;2023-07-30T08:39:24;8.70;;;1.58;;
22415;SDS011;12204;50.600;4.608;2023-07-30T08:44:29;8.82;;;1.60;;
22415;SDS011;12204;50.600;4.608;2023-07-30T08:49:33;11.00;;;1.73;;
22415;SDS011;12204;50.600;4.608;2023-07-30T08:54:37;9.20;;;1.63;;
22415;SDS011;12204;50.600;4.608;2023-07-30T08:59:45;11.27;;;1.80;;
22415;SDS011;12204;50.600;4.608;2023-07-30T09:04:56;9.80;;;1.75;;
22415;SDS011;12204;50.600;4.608;2023-07-30T09:10:03;9.07;;;1.63;;
22415;SDS011;12204;50.600;4.608;2023-07-30T09:15:09;11.27;;;1.70;;
22415;SDS011;12204;50.600;4.608;2023-07-30T09:20:13;6.88;;;1.38;;
22415;SDS011;12204;50.600;4.608;2023-07-30T09:25:17;7.32;;;1.45;;
22415;SDS011;12204;50.600;4.608;2023-07-30T09:30:23;8.93;;;1.70;;
22415;SDS011;12204;50.600;4.608;2023-07-30T09:35:29;9.25;;;1.48;;
22415;SDS011;12204;50.600;4.608;2023-07-30T09:40:36;10.20;;;1.80;;
22415;SDS011;12204;50.600;4.608;2023-07-30T09:45:44;8.75;;;1.80;;
22415;SDS011;12204;50.600;4.608;2023-07-30T09:50:49;7.95;;;1.50;;
22415;SDS011;12204;50.600;4.608;2023-07-30T09:55:53;10.13;;;1.70;;
22415;SDS011;12204;50.600;4.608;2023-07-30T10:00:58;11.13;;;1.40;;
22415;SDS011;12204;50.600;4.608;2023-07-30T10:06:03;9.27;;;1.60;;
22415;SDS011;12204;50.600;4.608;2023-07-30T10:11:09;14.43;;;2.45;;
22415;SDS011;12204;50.600;4.608;2023-07-30T10:16:15;10.25;;;2.42;;
22415;SDS011;12204;50.600;4.608;2023-07-30T10:21:21;10.73;;;2.33;;
22415;SDS011;12204;50.600;4.608;2023-07-30T10:26:27;8.90;;;1.90;;
22415;SDS011;12204;50.600;4.608;2023-07-30T10:31:39;10.32;;;1.60;;
22415;SDS011;12204;50.600;4.608;2023-07-30T10:36:43;11.45;;;1.90;;
22415;SDS011;12204;50.600;4.608;2023-07-30T10:41:50;8.30;;;1.87;;
22415;SDS011;12204;50.600;4.608;2023-07-30T10:46:59;10.13;;;1.95;;
22415;SDS011;12204;50.600;4.608;2023-07-30T10:52:06;8.68;;;2.00;;
22415;SDS011;12204;50.600;4.608;2023-07-30T10:57:10;9.05;;;1.75;;
22415;SDS011;12204;50.600;4.608;2023-07-30T11:02:16;7.82;;;1.70;;
22415;SDS011;12204;50.600;4.608;2023-07-30T11:07:19;9.25;;;1.60;;
22415;SDS011;12204;50.600;4.608;2023-07-30T11:12:24;8.18;;;1.73;;
22415;SDS011;12204;50.600;4.608;2023-07-30T11:17:30;9.30;;;1.80;;
22415;SDS011;12204;50.600;4.608;2023-07-30T11:22:34;7.88;;;1.50;;
22415;SDS011;12204;50.600;4.608;2023-07-30T11:27:44;7.32;;;1.40;;
22415;SDS011;12204;50.600;4.608;2023-07-30T11:32:50;7.63;;;1.63;;
22415;SDS011;12204;50.600;4.608;2023-07-30T11:37:53;9.80;;;1.60;;
22415;SDS011;12204;50.600;4.608;2023-07-30T11:42:58;8.68;;;1.60;;
22415;SDS011;12204;50.600;4.608;2023-07-30T11:48:07;7.88;;;1.50;;
22415;SDS011;12204;50.600;4.608;2023-07-30T11:53:13;9.85;;;1.50;;
22415;SDS011;12204;50.600;4.608;2023-07-30T11:58:17;8.02;;;1.70;;
22415;SDS011;12204;50.600;4.608;2023-07-30T12:03:22;7.20;;;1.45;;
22415;SDS011;12204;50.600;4.608;2023-07-30T12:08:28;8.23;;;1.63;;
22415;SDS011;12204;50.600;4.608;2023-07-30T12:13:32;6.88;;;1.42;;
22415;SDS011;12204;50.600;4.608;2023-07-30T12:18:37;8.13;;;1.50;;
22415;SDS011;12204;50.600;4.608;2023-07-30T12:23:42;8.38;;;1.55;;
22415;SDS011;12204;50.600;4.608;2023-07-30T12:28:45;7.53;;;1.45;;
22415;SDS011;12204;50.600;4.608;2023-07-30T12:33:50;8.25;;;1.60;;
22415;SDS011;12204;50.600;4.608;2023-07-30T12:38:54;7.70;;;1.50;;
22415;SDS011;12204;50.600;4.608;2023-07-30T12:43:57;7.00;;;1.40;;
22415;SDS011;12204;50.600;4.608;2023-07-30T12:49:02;9.25;;;1.25;;
22415;SDS011;12204;50.600;4.608;2023-07-30T12:54:06;7.28;;;1.40;;
22415;SDS011;12204;50.600;4.608;2023-07-30T12:59:10;6.78;;;1.27;;
22415;SDS011;12204;50.600;4.608;2023-07-30T13:04:15;7.80;;;1.30;;
22415;SDS011;12204;50.600;4.608;2023-07-30T13:09:18;6.72;;;1.27;;
22415;SDS011;12204;50.600;4.608;2023-07-30T13:14:23;7.35;;;1.30;;
22415;SDS011;12204;50.600;4.608;2023-07-30T13:19:27;8.45;;;1.40;;
22415;SDS011;12204;50.600;4.608;2023-07-30T13:24:33;7.45;;;1.20;;
22415;SDS011;12204;50.600;4.608;2023-07-30T13:29:55;7.22;;;1.30;;
22415;SDS011;12204;50.600;4.608;2023-07-30T13:35:00;7.82;;;1.42;;
22415;SDS011;12204;50.600;4.608;2023-07-30T13:40:04;8.95;;;1.30;;
22415;SDS011;12204;50.600;4.608;2023-07-30T13:45:09;9.05;;;1.30;;
22415;SDS011;12204;50.600;4.608;2023-07-30T13:50:14;6.10;;;1.27;;
22415;SDS011;12204;50.600;4.608;2023-07-30T13:55:17;7.97;;;1.55;;
22415;SDS011;12204;50.600;4.608;2023-07-30T14:00:21;8.52;;;1.65;;
22415;SDS011;12204;50.600;4.608;2023-07-30T14:05:26;7.32;;;1.50;;
22415;SDS011;12204;50.600;4.608;2023-07-30T14:10:30;6.95;;;1.58;;
22415;SDS011;12204;50.600;4.608;2023-07-30T14:15:33;8.48;;;1.17;;
22415;SDS011;12204;50.600;4.608;2023-07-30T14:20:38;10.40;;;1.50;;
22415;SDS011;12204;50.600;4.608;2023-07-30T14:25:42;6.03;;;1.27;;
22415;SDS011;12204;50.600;4.608;2023-07-30T14:30:46;8.20;;;1.55;;
22415;SDS011;12204;50.600;4.608;2023-07-30T14:35:51;5.72;;;1.65;;
22415;SDS011;12204;50.600;4.608;2023-07-30T14:40:55;5.35;;;1.50;;
22415;SDS011;12204;50.600;4.608;2023-07-30T14:45:58;5.38;;;1.40;;
22415;SDS011;12204;50.600;4.608;2023-07-30T14:51:03;7.25;;;1.50;;
22415;SDS011;12204;50.600;4.608;2023-07-30T14:56:07;6.55;;;1.67;;
22415;SDS011;12204;50.600;4.608;2023-07-30T15:01:10;6.45;;;1.50;;
22415;SDS011;12204;50.600;4.608;2023-07-30T15:06:15;7.80;;;1.50;;
22415;SDS011;12204;50.600;4.608;2023-07-30T15:11:20;7.60;;;1.40;;
22415;SDS011;12204;50.600;4.608;2023-07-30T15:16:23;8.27;;;1.70;;
22415;SDS011;12204;50.600;4.608;2023-07-30T15:21:29;5.38;;;1.40;;
22415;SDS011;12204;50.600;4.608;2023-07-30T15:26:33;6.07;;;1.52;;
22415;SDS011;12204;50.600;4.608;2023-07-30T15:31:37;6.90;;;1.40;;
22415;SDS011;12204;50.600;4.608;2023-07-30T15:36:42;6.05;;;1.52;;
22415;SDS011;12204;50.600;4.608;2023-07-30T15:41:45;9.90;;;1.75;;
22415;SDS011;12204;50.600;4.608;2023-07-30T15:46:49;6.60;;;1.50;;
22415;SDS011;12204;50.600;4.608;2023-07-30T15:51:54;8.45;;;1.58;;
22415;SDS011;12204;50.600;4.608;2023-07-30T15:56:58;7.07;;;1.60;;
22415;SDS011;12204;50.600;4.608;2023-07-30T16:02:01;6.43;;;1.50;;
22415;SDS011;12204;50.600;4.608;2023-07-30T16:07:07;5.97;;;1.70;;
22415;SDS011;12204;50.600;4.608;2023-07-30T16:12:13;6.18;;;1.65;;
22415;SDS011;12204;50.600;4.608;2023-07-30T16:17:17;7.13;;;1.75;;
22415;SDS011;12204;50.600;4.608;2023-07-30T16:22:22;7.45;;;1.80;;
22415;SDS011;12204;50.600;4.608;2023-07-30T16:27:25;6.53;;;1.70;;
22415;SDS011;12204;50.600;4.608;2023-07-30T16:32:29;8.60;;;1.98;;
22415;SDS011;12204;50.600;4.608;2023-07-30T16:37:34;4.97;;;1.67;;
22415;SDS011;12204;50.600;4.608;2023-07-30T16:42:37;6.13;;;1.58;;
22415;SDS011;12204;50.600;4.608;2023-07-30T16:47:40;11.02;;;2.00;;
22415;SDS011;12204;50.600;4.608;2023-07-30T16:52:45;11.98;;;2.10;;
22415;SDS011;12204;50.600;4.608;2023-07-30T16:57:49;10.65;;;2.53;;
22415;SDS011;12204;50.600;4.608;2023-07-30T17:02:52;12.93;;;2.38;;
22415;SDS011;12204;50.600;4.608;2023-07-30T17:08:00;16.67;;;2.90;;
22415;SDS011;12204;50.600;4.608;2023-07-30T17:13:03;22.05;;;4.95;;
22415;SDS011;12204;50.600;4.608;2023-07-30T17:18:07;39.58;;;13.82;;
22415;SDS011;12204;50.600;4.608;2023-07-30T17:23:12;45.05;;;20.58;;
22415;SDS011;12204;50.600;4.608;2023-07-30T17:28:16;46.50;;;22.27;;
22415;SDS011;12204;50.600;4.608;2023-07-30T17:33:22;48.45;;;20.10;;
22415;SDS011;12204;50.600;4.608;2023-07-30T17:38:31;38.03;;;16.80;;
22415;SDS011;12204;50.600;4.608;2023-07-30T17:43:36;32.08;;;15.40;;
22415;SDS011;12204;50.600;4.608;2023-07-30T17:48:41;38.40;;;14.50;;
22415;SDS011;12204;50.600;4.608;2023-07-30T17:53:49;35.40;;;13.97;;
22415;SDS011;12204;50.600;4.608;2023-07-30T17:58:54;31.23;;;13.43;;
22415;SDS011;12204;50.600;4.608;2023-07-30T18:03:58;29.08;;;12.20;;
22415;SDS011;12204;50.600;4.608;2023-07-30T18:15:23;29.77;;;10.82;;
22415;SDS011;12204;50.600;4.608;2023-07-30T18:20:28;24.17;;;10.02;;
22415;SDS011;12204;50.600;4.608;2023-07-30T18:25:37;28.63;;;10.13;;
22415;SDS011;12204;50.600;4.608;2023-07-30T18:30:41;21.08;;;8.27;;
22415;SDS011;12204;50.600;4.608;2023-07-30T18:35:47;27.98;;;8.63;;
22415;SDS011;12204;50.600;4.608;2023-07-30T18:47:18;21.42;;;7.72;;
22415;SDS011;12204;50.600;4.608;2023-07-30T18:52:37;20.75;;;7.57;;
22415;SDS011;12204;50.600;4.608;2023-07-30T18:57:49;18.58;;;7.25;;
22415;SDS011;12204;50.600;4.608;2023-07-30T19:02:53;18.98;;;6.88;;
22415;SDS011;12204;50.600;4.608;2023-07-30T19:07:57;20.90;;;6.95;;
22415;SDS011;12204;50.600;4.608;2023-07-30T19:13:05;19.63;;;6.45;;
22415;SDS011;12204;50.600;4.608;2023-07-30T19:18:08;18.95;;;5.65;;
22415;SDS011;12204;50.600;4.608;2023-07-30T19:23:13;17.05;;;5.53;;
22415;SDS011;12204;50.600;4.608;2023-07-30T19:28:18;16.67;;;5.55;;
22415;SDS011;12204;50.600;4.608;2023-07-30T19:33:22;14.95;;;5.43;;
22415;SDS011;12204;50.600;4.608;2023-07-30T19:38:42;15.73;;;5.38;;
22415;SDS011;12204;50.600;4.608;2023-07-30T19:43:47;13.43;;;4.75;;
22415;SDS011;12204;50.600;4.608;2023-07-30T19:48:51;13.80;;;4.75;;
22415;SDS011;12204;50.600;4.608;2023-07-30T19:53:55;13.75;;;4.82;;
22415;SDS011;12204;50.600;4.608;2023-07-30T19:59:00;15.65;;;4.85;;
22415;SDS011;12204;50.600;4.608;2023-07-30T20:04:05;14.93;;;4.40;;
22415;SDS011;12204;50.600;4.608;2023-07-30T20:09:09;12.60;;;4.30;;
22415;SDS011;12204;50.600;4.608;2023-07-30T20:14:15;13.75;;;4.32;;
22415;SDS011;12204;50.600;4.608;2023-07-30T20:19:19;12.75;;;4.10;;
22415;SDS011;12204;50.600;4.608;2023-07-30T20:24:44;11.18;;;4.10;;
22415;SDS011;12204;50.600;4.608;2023-07-30T20:29:49;12.40;;;4.30;;
22415;SDS011;12204;50.600;4.608;2023-07-30T20:34:53;12.98;;;4.25;;
22415;SDS011;12204;50.600;4.608;2023-07-30T20:39:56;12.27;;;4.38;;
22415;SDS011;12204;50.600;4.608;2023-07-30T20:45:01;9.50;;;3.75;;
22415;SDS011;12204;50.600;4.608;2023-07-30T20:50:06;12.40;;;4.10;;
22415;SDS011;12204;50.600;4.608;2023-07-30T20:55:16;11.32;;;3.88;;
22415;SDS011;12204;50.600;4.608;2023-07-30T21:00:23;10.95;;;4.00;;
22415;SDS011;12204;50.600;4.608;2023-07-30T21:05:27;10.50;;;3.75;;
22415;SDS011;12204;50.600;4.608;2023-07-30T21:10:30;11.85;;;3.85;;
22415;SDS011;12204;50.600;4.608;2023-07-30T21:15:35;12.27;;;3.90;;
22415;SDS011;12204;50.600;4.608;2023-07-30T21:20:39;12.48;;;4.15;;
22415;SDS011;12204;50.600;4.608;2023-07-30T21:25:42;13.38;;;4.18;;
22415;SDS011;12204;50.600;4.608;2023-07-30T21:30:47;11.55;;;4.15;;
22415;SDS011;12204;50.600;4.608;2023-07-30T21:35:51;15.02;;;4.32;;
22415;SDS011;12204;50.600;4.608;2023-07-30T21:40:54;17.98;;;4.15;;
22415;SDS011;12204;50.600;4.608;2023-07-30T21:45:59;13.75;;;4.18;;
22415;SDS011;12204;50.600;4.608;2023-07-30T21:51:04;20.08;;;4.20;;
22415;SDS011;12204;50.600;4.608;2023-07-30T21:56:10;11.00;;;3.80;;
22415;SDS011;12204;50.600;4.608;2023-07-30T22:01:15;14.50;;;4.22;;
22415;SDS011;12204;50.600;4.608;2023-07-30T22:06:18;14.38;;;3.90;;
22415;SDS011;12204;50.600;4.608;2023-07-30T22:11:21;11.88;;;3.70;;
22415;SDS011;12204;50.600;4.608;2023-07-30T22:16:29;11.20;;;3.78;;
22415;SDS011;12204;50.600;4.608;2023-07-30T22:21:33;10.32;;;3.55;;
22415;SDS011;12204;50.600;4.608;2023-07-30T22:26:36;11.68;;;3.75;;
22415;SDS011;12204;50.600;4.608;2023-07-30T22:31:41;11.50;;;3.55;;
22415;SDS011;12204;50.600;4.608;2023-07-30T22:36:45;11.45;;;3.80;;
22415;SDS011;12204;50.600;4.608;2023-07-30T22:41:48;11.90;;;3.55;;
22415;SDS011;12204;50.600;4.608;2023-07-30T22:46:53;12.65;;;3.90;;
22415;SDS011;12204;50.600;4.608;2023-07-30T22:51:57;13.25;;;3.90;;
22415;SDS011;12204;50.600;4.608;2023-07-30T22:57:01;8.90;;;3.28;;
22415;SDS011;12204;50.600;4.608;2023-07-30T23:02:06;10.48;;;3.33;;
22415;SDS011;12204;50.600;4.608;2023-07-30T23:07:09;11.15;;;3.40;;
22415;SDS011;12204;50.600;4.608;2023-07-30T23:12:13;10.90;;;3.67;;
22415;SDS011;12204;50.600;4.608;2023-07-30T23:17:18;9.93;;;3.45;;
22415;SDS011;12204;50.600;4.608;2023-07-30T23:22:21;9.00;;;3.15;;
22415;SDS011;12204;50.600;4.608;2023-07-30T23:27:25;9.77;;;3.40;;
22415;SDS011;12204;50.600;4.608;2023-07-30T23:32:29;8.80;;;2.95;;
22415;SDS011;12204;50.600;4.608;2023-07-30T23:37:33;8.77;;;3.47;;
22415;SDS011;12204;50.600;4.608;2023-07-30T23:42:37;10.23;;;3.05;;
22415;SDS011;12204;50.600;4.608;2023-07-30T23:47:41;12.57;;;3.25;;
22415;SDS011;12204;50.600;4.608;2023-07-30T23:52:45;10.65;;;3.10;;
22415;SDS011;12204;50.600;4.608;2023-07-30T23:57:48;9.68;;;3.35;;
